createdAt,value
2023-01-25T00:09:42.202Z,17.80
2023-01-25T00:12:10.333Z,19.00
2023-01-25T00:14:38.764Z,18.30
2023-01-25T00:17:06.635Z,20.10
2023-01-25T00:19:34.965Z,20.00
2023-01-25T00:22:03.207Z,19.20
2023-01-25T00:24:36.065Z,17.80
2023-01-25T00:27:04.454Z,19.40
2023-01-25T00:29:32.939Z,19.80
2023-01-25T00:32:00.887Z,18.60
2023-01-25T00:34:37.733Z,21.50
2023-01-25T00:37:30.768Z,20.80
2023-01-25T00:40:00.905Z,18.00
2023-01-25T00:42:29.508Z,18.80
2023-01-25T00:44:57.407Z,19.20
2023-01-25T00:47:25.721Z,19.90
2023-01-25T00:49:54.210Z,18.10
2023-01-25T00:52:23.097Z,20.10
2023-01-25T00:54:51.523Z,18.00
2023-01-25T00:57:19.873Z,19.50
2023-01-25T00:59:47.792Z,19.10
2023-01-25T01:02:20.700Z,26.20
2023-01-25T01:04:48.857Z,24.30
2023-01-25T01:07:17.052Z,19.60
2023-01-25T01:09:46.943Z,21.90
2023-01-25T01:12:15.971Z,21.30
2023-01-25T01:14:44.112Z,21.10
2023-01-25T01:17:12.169Z,22.90
2023-01-25T01:19:40.985Z,23.40
2023-01-25T01:22:08.983Z,23.60
2023-01-25T01:24:37.991Z,21.80
2023-01-25T01:27:05.964Z,22.40
2023-01-25T01:29:33.858Z,21.60
2023-01-25T01:32:02.349Z,22.80
2023-01-25T01:34:30.653Z,23.90
2023-01-25T01:36:59.015Z,22.70
2023-01-25T01:39:26.957Z,23.40
2023-01-25T01:41:55.383Z,23.90
2023-01-25T01:44:43.996Z,21.40
2023-01-25T01:47:34.578Z,22.70
2023-01-25T01:50:06.592Z,20.70
2023-01-25T01:52:36.320Z,20.30
2023-01-25T01:55:07.941Z,24.40
2023-01-25T01:57:42.414Z,26.80
2023-01-25T02:00:12.737Z,25.10
2023-01-25T02:02:44.262Z,24.60
2023-01-25T02:05:17.629Z,20.50
2023-01-25T02:07:46.004Z,24.90
2023-01-25T02:10:14.707Z,25.50
2023-01-25T02:12:45.804Z,21.40
2023-01-25T02:15:14.100Z,20.60
2023-01-25T02:17:42.157Z,22.20
2023-01-25T02:20:37.502Z,20.40
2023-01-25T02:23:24.934Z,21.10
2023-01-25T02:25:53.727Z,22.10
2023-01-25T02:28:46.957Z,20.90
2023-01-25T02:31:15.586Z,21.60
2023-01-25T02:33:44.581Z,19.00
2023-01-25T02:36:15.453Z,21.70
2023-01-25T02:39:17.317Z,20.50
2023-01-25T02:41:48.182Z,20.90
2023-01-25T02:44:27.039Z,19.60
2023-01-25T02:46:55.318Z,23.50
2023-01-25T02:49:25.599Z,23.60
2023-01-25T02:51:57.360Z,23.50
2023-01-25T02:54:27.058Z,20.30
2023-01-25T02:56:55.469Z,21.20
2023-01-25T02:59:24.600Z,21.00
2023-01-25T03:01:55.245Z,23.00
2023-01-25T03:04:23.716Z,20.00
2023-01-25T03:06:51.923Z,27.00
2023-01-25T03:09:20.499Z,21.90
2023-01-25T03:11:49.897Z,22.00
2023-01-25T03:14:22.397Z,21.90
2023-01-25T03:16:50.759Z,22.60
2023-01-25T03:19:20.686Z,21.20
2023-01-25T03:21:48.803Z,20.10
2023-01-25T03:24:16.964Z,20.40
2023-01-25T03:27:08.565Z,20.50
2023-01-25T03:29:45.246Z,21.10
2023-01-25T03:32:17.257Z,19.00
2023-01-25T03:34:45.998Z,19.00
2023-01-25T03:37:14.964Z,20.30
2023-01-25T03:39:43.541Z,18.40
2023-01-25T03:42:15.398Z,25.30
2023-01-25T03:44:43.730Z,25.10
2023-01-25T03:47:11.812Z,18.90
2023-01-25T03:49:41.791Z,21.50
2023-01-25T03:52:10.101Z,20.30
2023-01-25T03:54:39.475Z,23.90
2023-01-25T03:57:12.952Z,21.60
2023-01-25T03:59:52.674Z,20.20
2023-01-25T04:02:21.062Z,22.20
2023-01-25T04:04:49.992Z,28.20
2023-01-25T04:07:19.126Z,19.30
2023-01-25T04:09:49.566Z,26.50
2023-01-25T04:12:19.176Z,22.10
2023-01-25T04:14:47.915Z,25.40
2023-01-25T04:17:23.790Z,28.00
2023-01-25T04:20:14.377Z,22.70
2023-01-25T04:22:42.852Z,19.20
2023-01-25T04:25:11.223Z,22.30
2023-01-25T04:27:43.626Z,24.10
2023-01-25T04:30:14.172Z,25.50
2023-01-25T04:32:43.097Z,20.60
2023-01-25T04:35:23.398Z,16.60
2023-01-25T04:37:58.213Z,19.30
2023-01-25T04:40:28.003Z,19.90
2023-01-25T04:42:57.073Z,19.90
2023-01-25T04:45:25.634Z,17.80
2023-01-25T04:47:57.822Z,21.10
2023-01-25T04:50:25.848Z,22.50
2023-01-25T04:52:54.355Z,18.80
2023-01-25T04:55:22.636Z,18.70
2023-01-25T04:57:51.994Z,16.40
2023-01-25T05:00:20.703Z,21.00
2023-01-25T05:02:49.631Z,20.80
2023-01-25T05:05:17.651Z,24.70
2023-01-25T05:07:47.262Z,23.90
2023-01-25T05:10:15.690Z,16.60
2023-01-25T05:12:59.331Z,18.80
2023-01-25T05:15:27.753Z,20.70
2023-01-25T05:17:55.692Z,18.20
2023-01-25T05:20:23.661Z,20.30
2023-01-25T05:22:51.534Z,21.40
2023-01-25T05:25:38.913Z,20.70
2023-01-25T05:28:07.467Z,17.90
2023-01-25T05:30:50.618Z,21.40
2023-01-25T05:33:25.223Z,21.60
2023-01-25T05:35:53.868Z,21.10
2023-01-25T05:38:26.066Z,17.50
2023-01-25T05:40:58.322Z,19.60
2023-01-25T05:43:26.549Z,21.90
2023-01-25T05:45:54.703Z,17.40
2023-01-25T05:48:23.247Z,19.00
2023-01-25T05:50:51.462Z,16.00
2023-01-25T05:53:26.994Z,21.50
2023-01-25T05:55:54.965Z,21.10
2023-01-25T05:58:23.569Z,17.60
2023-01-25T06:00:51.537Z,19.10
2023-01-25T06:03:26.937Z,19.00
2023-01-25T06:05:58.949Z,19.50
2023-01-25T06:08:27.478Z,17.80
2023-01-25T06:10:56.008Z,19.10
2023-01-25T06:13:24.315Z,18.30
2023-01-25T06:15:56.350Z,20.50
2023-01-25T06:18:50.780Z,22.10
2023-01-25T06:21:22.631Z,21.10
2023-01-25T06:23:50.624Z,20.20
2023-01-25T06:26:18.534Z,22.80
2023-01-25T06:28:46.768Z,19.30
2023-01-25T06:31:17.002Z,20.70
2023-01-25T06:33:51.395Z,18.00
2023-01-25T06:36:22.017Z,24.80
2023-01-25T06:38:50.957Z,21.40
2023-01-25T06:41:21.214Z,17.90
2023-01-25T06:43:52.939Z,20.30
2023-01-25T06:46:21.392Z,22.10
2023-01-25T06:48:49.414Z,25.70
2023-01-25T06:51:17.977Z,18.50
2023-01-25T06:53:46.336Z,24.60
2023-01-25T06:56:22.188Z,21.30
2023-01-25T06:58:50.681Z,21.90
2023-01-25T07:01:26.934Z,18.70
2023-01-25T07:03:56.488Z,24.10
2023-01-25T07:06:25.944Z,23.60
2023-01-25T07:08:54.090Z,21.00
2023-01-25T07:11:22.062Z,16.90
2023-01-25T07:13:50.408Z,23.70
2023-01-25T07:16:19.843Z,22.80
2023-01-25T07:18:48.074Z,23.10
2023-01-25T07:21:21.273Z,21.10
2023-01-25T07:23:49.981Z,18.30
2023-01-25T07:26:20.563Z,19.30
2023-01-25T07:28:53.496Z,22.00
2023-01-25T07:31:22.704Z,21.60
2023-01-25T07:33:51.800Z,22.50
2023-01-25T07:36:19.787Z,25.20
2023-01-25T07:38:48.278Z,20.80
2023-01-25T07:41:16.632Z,19.90
2023-01-25T07:43:44.742Z,23.50
2023-01-25T07:46:14.313Z,21.60
2023-01-25T07:48:49.569Z,26.20
2023-01-25T07:51:26.622Z,23.30
2023-01-25T07:53:56.529Z,23.60
2023-01-25T07:56:29.274Z,22.80
2023-01-25T07:58:57.961Z,20.90
2023-01-25T08:01:27.221Z,26.10
2023-01-25T08:03:56.334Z,21.10
2023-01-25T08:06:35.465Z,25.10
2023-01-25T08:09:08.599Z,24.50
2023-01-25T08:11:36.724Z,25.40
2023-01-25T08:14:05.426Z,22.00
2023-01-25T08:16:33.718Z,24.10
2023-01-25T08:19:03.447Z,26.40
2023-01-25T08:21:34.907Z,24.50
2023-01-25T08:24:06.834Z,24.20
2023-01-25T08:26:35.556Z,22.90
2023-01-25T08:29:04.387Z,25.70
2023-01-25T08:31:33.957Z,27.30
2023-01-25T08:34:02.145Z,26.50
2023-01-25T08:36:30.824Z,26.10
2023-01-25T08:39:00.737Z,29.10
2023-01-25T08:41:29.910Z,29.50
2023-01-25T08:43:58.236Z,27.60
2023-01-25T08:46:30.284Z,27.90
2023-01-25T08:49:01.224Z,23.40
2023-01-25T08:51:29.726Z,26.60
2023-01-25T08:53:58.115Z,27.10
2023-01-25T08:56:26.148Z,28.50
2023-01-25T08:58:55.485Z,32.60
2023-01-25T09:01:24.245Z,24.50
2023-01-25T09:03:52.375Z,30.30
2023-01-25T09:06:23.097Z,27.60
2023-01-25T09:08:51.481Z,25.50
2023-01-25T09:11:20.809Z,28.80
2023-01-25T09:13:49.172Z,29.20
2023-01-25T09:16:28.935Z,31.30
2023-01-25T09:18:59.093Z,48.70
2023-01-25T09:21:27.433Z,38.30
2023-01-25T09:24:10.909Z,36.90
2023-01-25T09:26:42.942Z,34.50
2023-01-25T09:29:13.030Z,32.00
2023-01-25T09:31:43.684Z,29.00
2023-01-25T09:34:33.993Z,30.70
2023-01-25T09:37:02.149Z,29.10
2023-01-25T09:39:30.266Z,31.30
2023-01-25T09:42:13.980Z,35.90
2023-01-25T09:45:17.978Z,39.00
2023-01-25T09:47:48.064Z,36.60
2023-01-25T09:50:28.298Z,34.00
2023-01-25T09:53:02.704Z,32.00
2023-01-25T09:55:30.754Z,28.60
2023-01-25T09:58:00.412Z,31.90
2023-01-25T10:00:37.271Z,32.60
2023-01-25T10:03:27.367Z,31.60
2023-01-25T10:05:58.235Z,35.70
2023-01-25T10:09:00.091Z,31.80
2023-01-25T10:11:30.371Z,31.30
2023-01-25T10:13:58.710Z,31.10
2023-01-25T10:16:50.342Z,30.20
2023-01-25T10:19:36.829Z,31.10
2023-01-25T10:22:22.212Z,32.80
2023-01-25T10:25:25.250Z,30.90
2023-01-25T10:27:59.913Z,36.40
2023-01-25T10:30:29.684Z,34.00
2023-01-25T10:32:59.798Z,34.30
2023-01-25T10:35:36.058Z,31.30
2023-01-25T10:38:10.634Z,35.40
2023-01-25T10:40:44.428Z,37.70
2023-01-25T10:43:18.390Z,35.90
2023-01-25T10:45:46.676Z,29.50
2023-01-25T10:48:29.095Z,34.30
2023-01-25T10:50:58.076Z,32.50
2023-01-25T10:53:33.662Z,32.10
2023-01-25T10:56:01.726Z,31.90
2023-01-25T10:58:36.746Z,34.80
2023-01-25T11:01:07.140Z,30.10
2023-01-25T11:03:36.056Z,32.60
2023-01-25T11:06:04.720Z,31.30
2023-01-25T11:08:41.454Z,30.80
2023-01-25T11:11:36.372Z,28.40
2023-01-25T11:14:16.188Z,27.40
2023-01-25T11:16:47.113Z,33.40
2023-01-25T11:19:48.265Z,36.00
2023-01-25T11:22:19.205Z,32.40
2023-01-25T11:24:47.544Z,34.40
2023-01-25T11:27:24.349Z,31.80
2023-01-25T11:30:11.444Z,35.10
2023-01-25T11:32:39.886Z,36.20
2023-01-25T11:35:15.514Z,39.20
2023-01-25T11:38:16.598Z,36.50
2023-01-25T11:40:57.003Z,34.80
2023-01-25T16:16:27.687Z,38.80
2023-01-25T16:18:55.925Z,40.40
2023-01-25T16:21:26.383Z,36.60
2023-01-25T16:27:09.937Z,36.50
2023-01-25T16:29:38.703Z,36.80
2023-01-25T16:32:07.441Z,30.80
2023-01-25T16:34:35.921Z,34.30
2023-01-25T16:37:24.155Z,35.10
2023-01-25T16:40:30.047Z,33.10
2023-01-25T16:42:58.049Z,31.70
2023-01-25T16:45:27.355Z,32.20
2023-01-25T16:47:55.442Z,42.90
2023-01-25T16:50:23.601Z,35.40
2023-01-25T16:52:55.003Z,40.20
2023-01-25T16:55:23.045Z,33.80
2023-01-25T16:57:51.391Z,32.80
2023-01-25T17:00:20.910Z,28.30
2023-01-25T17:02:58.694Z,30.50
2023-01-25T17:05:34.013Z,31.20
2023-01-25T17:08:02.059Z,34.50
2023-01-25T17:10:34.702Z,30.40
2023-01-25T17:13:03.468Z,31.30
2023-01-25T17:15:33.944Z,31.90
2023-01-25T17:18:02.394Z,33.90
2023-01-25T17:20:30.722Z,33.00
2023-01-25T17:22:58.879Z,34.30
2023-01-25T17:25:26.875Z,34.10
2023-01-25T17:27:54.968Z,34.80
2023-01-25T17:30:22.962Z,30.70
2023-01-25T17:32:50.934Z,33.50
2023-01-25T17:35:23.439Z,31.20
2023-01-25T17:37:53.979Z,37.70
2023-01-25T17:40:22.271Z,33.90
2023-01-25T17:42:51.353Z,31.20
2023-01-25T17:45:19.365Z,31.10
2023-01-25T17:47:47.318Z,35.10
2023-01-25T17:50:16.600Z,32.80
2023-01-25T17:52:44.544Z,32.80
2023-01-25T17:55:12.658Z,30.10
2023-01-25T17:57:40.602Z,34.80
2023-01-25T18:00:12.134Z,30.80
2023-01-25T18:02:45.256Z,37.20
2023-01-25T18:05:14.519Z,35.20
2023-01-25T18:07:44.777Z,36.90
2023-01-25T18:10:12.890Z,29.80
2023-01-25T18:12:40.821Z,30.20
2023-01-25T18:15:10.225Z,31.00
2023-01-25T18:17:39.256Z,30.80
2023-01-25T18:20:10.685Z,37.10
2023-01-25T18:22:38.843Z,32.80
2023-01-25T18:25:08.466Z,32.50
2023-01-25T18:27:38.977Z,28.10
2023-01-25T18:30:31.587Z,31.80
2023-01-25T18:32:59.619Z,33.00
2023-01-25T18:35:28.939Z,32.30
2023-01-25T18:37:57.409Z,31.80
2023-01-25T18:40:25.619Z,33.30
2023-01-25T18:42:55.421Z,34.50
2023-01-25T18:45:24.064Z,35.90
2023-01-25T18:47:52.175Z,40.40
2023-01-25T18:50:23.848Z,40.00
2023-01-25T18:52:51.937Z,46.60
2023-01-25T18:55:19.914Z,36.40
2023-01-25T18:57:47.871Z,34.40
2023-01-25T19:00:18.685Z,35.40
2023-01-25T19:02:46.719Z,32.60
2023-01-25T19:05:18.501Z,34.00
2023-01-25T19:07:46.612Z,33.40
2023-01-25T19:10:14.784Z,46.30
2023-01-25T19:12:43.102Z,43.10
2023-01-25T19:15:11.770Z,31.40
2023-01-25T19:17:41.356Z,32.60
2023-01-25T19:20:10.952Z,32.60
2023-01-25T19:22:40.784Z,32.40
2023-01-25T19:25:10.529Z,35.30
2023-01-25T19:27:38.908Z,27.50
2023-01-25T19:30:07.945Z,32.80
2023-01-25T19:32:37.204Z,31.00
2023-01-25T19:35:07.854Z,31.60
2023-01-25T19:37:36.866Z,29.70
2023-01-25T19:40:08.538Z,30.70
2023-01-25T19:42:37.372Z,33.60
2023-01-25T19:45:05.999Z,33.10
2023-01-25T19:47:34.061Z,31.90
2023-01-25T19:50:02.858Z,29.50
2023-01-25T19:52:31.243Z,33.50
2023-01-25T19:54:59.254Z,27.10
2023-01-25T19:57:27.345Z,30.30
2023-01-25T22:47:01.444Z,29.60
2023-01-25T22:49:29.734Z,37.00
2023-01-25T22:51:57.712Z,38.90
2023-01-25T22:54:29.275Z,36.80
2023-01-25T22:56:57.877Z,41.00
2023-01-25T22:59:25.927Z,38.90
2023-01-25T23:01:53.851Z,41.40
2023-01-25T23:04:21.894Z,43.70
2023-01-25T23:06:50.069Z,40.30
2023-01-25T23:09:17.963Z,42.10
2023-01-25T23:11:46.071Z,42.90
2023-01-25T23:14:33.084Z,43.40
2023-01-25T23:17:33.259Z,43.30
2023-01-25T23:20:01.261Z,33.00
2023-01-25T23:22:29.641Z,38.00
2023-01-25T23:24:58.226Z,38.90
2023-01-25T23:27:26.346Z,36.60
2023-01-25T23:29:54.402Z,34.90
2023-01-25T23:32:22.579Z,40.70
2023-01-25T23:34:53.282Z,32.80
2023-01-25T23:37:22.250Z,39.90
2023-01-25T23:39:50.545Z,35.80
2023-01-25T23:42:18.798Z,36.60
2023-01-25T23:44:46.736Z,33.70
2023-01-25T23:47:15.618Z,33.70
2023-01-25T23:49:43.845Z,34.10
2023-01-25T23:52:11.845Z,32.80
2023-01-25T23:54:39.928Z,33.90
2023-01-25T23:57:08.250Z,33.10
2023-01-25T23:59:36.272Z,33.40
